createdAt,value
2018-11-01T00:07:15.544Z,13.09
2018-11-01T00:15:36.522Z,13.15
2018-11-01T00:23:57.520Z,13.17
2018-11-01T00:32:18.506Z,13.08
2018-11-01T00:40:39.491Z,13.01
2018-11-01T00:49:00.596Z,12.87
2018-11-01T00:57:21.601Z,12.76
2018-11-01T01:05:42.627Z,12.63
2018-11-01T01:14:03.632Z,12.58
2018-11-01T01:22:24.618Z,12.56
2018-11-01T01:30:45.647Z,12.55
2018-11-01T01:39:06.701Z,12.58
2018-11-01T01:47:27.709Z,12.57
2018-11-01T01:55:48.709Z,12.54
2018-11-01T02:04:09.735Z,12.51
2018-11-01T02:12:30.734Z,12.45
2018-11-01T02:20:51.733Z,12.41
2018-11-01T02:29:12.781Z,12.34
2018-11-01T02:37:33.785Z,12.23
2018-11-01T02:45:54.805Z,12.00
2018-11-01T02:54:15.814Z,11.87
2018-11-01T03:02:36.794Z,11.73
2018-11-01T03:10:57.779Z,11.51
2018-11-01T03:19:18.804Z,11.36
2018-11-01T03:27:39.832Z,11.22
2018-11-01T03:36:00.818Z,11.05
2018-11-01T03:44:21.839Z,10.89
2018-11-01T03:52:42.898Z,10.68
2018-11-01T04:01:03.879Z,10.49
2018-11-01T04:09:24.879Z,10.40
2018-11-01T04:17:45.880Z,10.30
2018-11-01T04:26:06.900Z,10.20
2018-11-01T04:34:27.910Z,10.11
2018-11-01T04:42:48.905Z,10.05
2018-11-01T04:51:10.018Z,10.09
2018-11-01T04:59:31.021Z,10.03
2018-11-01T05:07:52.022Z,10.00
2018-11-01T05:16:13.024Z,9.87
2018-11-01T05:24:34.031Z,9.74
2018-11-01T05:32:55.052Z,9.66
2018-11-01T05:41:16.033Z,9.52
2018-11-01T05:49:37.047Z,9.45
2018-11-01T05:57:58.069Z,9.23
2018-11-01T06:06:19.195Z,9.10
2018-11-01T06:14:40.173Z,9.27
2018-11-01T06:23:01.195Z,9.07
2018-11-01T06:31:22.173Z,9.10
2018-11-01T06:39:43.191Z,9.06
2018-11-01T06:48:04.201Z,9.04
2018-11-01T06:56:25.287Z,9.05
2018-11-01T07:04:46.262Z,9.05
2018-11-01T07:13:07.261Z,9.16
2018-11-01T07:21:28.309Z,9.27
2018-11-01T07:29:49.323Z,9.47
2018-11-01T07:38:10.522Z,9.65
2018-11-01T07:46:31.932Z,9.86
2018-11-01T07:54:53.492Z,10.15
2018-11-01T08:03:14.842Z,10.47
2018-11-01T08:11:36.249Z,10.82
2018-11-01T08:19:57.628Z,11.06
2018-11-01T08:28:18.736Z,11.55
2018-11-01T08:36:39.865Z,11.84
2018-11-01T08:45:01.018Z,12.28
2018-11-01T08:53:22.173Z,12.59
2018-11-01T09:01:43.304Z,12.84
2018-11-01T09:10:04.418Z,13.20
2018-11-01T09:18:25.418Z,13.46
2018-11-01T09:26:46.439Z,13.60
2018-11-01T09:35:07.596Z,13.86
2018-11-01T09:43:28.592Z,14.13
2018-11-01T09:51:49.597Z,14.13
2018-11-01T10:00:10.710Z,14.27
2018-11-01T10:08:31.689Z,14.43
2018-11-01T10:16:52.941Z,14.61
2018-11-01T10:25:13.850Z,14.76
2018-11-01T10:33:34.839Z,14.89
2018-11-01T10:41:55.849Z,14.97
2018-11-01T10:50:16.859Z,15.11
2018-11-01T10:58:37.861Z,15.32
2018-11-01T11:06:58.879Z,15.43
2018-11-01T11:15:19.896Z,15.47
2018-11-01T11:23:40.920Z,15.58
2018-11-01T11:32:01.930Z,15.54
2018-11-01T11:40:23.023Z,15.43
2018-11-01T11:48:44.010Z,15.36
2018-11-01T11:57:05.049Z,15.42
2018-11-01T12:05:26.143Z,15.51
2018-11-01T12:13:47.083Z,15.51
2018-11-01T12:22:08.105Z,15.49
2018-11-01T12:30:29.105Z,15.46
2018-11-01T12:38:50.113Z,15.34
2018-11-01T12:47:11.118Z,15.19
2018-11-01T12:55:32.122Z,15.06
2018-11-01T13:03:53.144Z,15.00
2018-11-01T13:12:14.141Z,15.00
2018-11-01T13:20:35.122Z,15.08
2018-11-01T13:28:56.101Z,14.97
2018-11-01T13:37:17.087Z,14.98
2018-11-01T13:45:38.089Z,14.90
2018-11-01T13:53:59.219Z,14.88
2018-11-01T14:02:20.244Z,14.81
2018-11-01T14:10:41.270Z,14.71
2018-11-01T14:19:02.287Z,14.70
2018-11-01T14:27:23.308Z,14.59
2018-11-01T14:35:44.328Z,14.43
2018-11-01T14:44:05.345Z,14.23
2018-11-01T14:52:27.121Z,14.02
2018-11-01T15:00:47.484Z,13.64
2018-11-01T15:09:08.482Z,13.07
2018-11-01T15:17:29.490Z,13.06
2018-11-01T15:25:50.521Z,12.88
2018-11-01T15:34:11.724Z,12.74
2018-11-01T15:42:32.596Z,12.68
2018-11-01T15:50:53.648Z,12.72
2018-11-01T15:59:14.679Z,12.68
2018-11-01T16:07:35.738Z,12.62
2018-11-01T16:15:56.869Z,12.88
2018-11-01T16:24:17.929Z,12.99
2018-11-01T16:32:38.977Z,13.04
2018-11-01T16:40:59.982Z,13.03
2018-11-01T16:49:20.989Z,13.02
2018-11-01T16:57:42.026Z,13.04
2018-11-01T17:06:03.189Z,12.98
2018-11-01T17:14:24.954Z,13.01
2018-11-01T17:22:46.227Z,12.98
2018-11-01T17:31:07.384Z,12.97
2018-11-01T17:39:28.564Z,12.98
2018-11-01T17:47:49.803Z,12.93
2018-11-01T17:56:10.959Z,12.97
2018-11-01T18:04:32.026Z,13.04
2018-11-01T18:12:53.383Z,13.08
2018-11-01T18:21:14.583Z,13.07
2018-11-01T18:29:35.629Z,13.18
2018-11-01T18:37:56.719Z,13.22
2018-11-01T18:46:17.823Z,13.24
2018-11-01T18:54:38.973Z,13.27
2018-11-01T19:02:59.934Z,13.24
2018-11-01T19:11:20.954Z,13.27
2018-11-01T19:19:41.996Z,13.14
2018-11-01T19:28:03.163Z,13.18
2018-11-01T19:36:24.073Z,13.21
2018-11-01T19:44:45.105Z,13.19
2018-11-01T19:53:06.117Z,13.20
2018-11-01T20:01:27.224Z,13.27
2018-11-01T20:09:48.267Z,13.17
2018-11-01T20:18:09.306Z,13.15
2018-11-01T20:26:30.351Z,13.14
2018-11-01T20:34:51.357Z,13.18
2018-11-01T20:43:12.365Z,13.32
2018-11-01T20:51:33.396Z,13.25
2018-11-01T20:59:54.405Z,13.35
2018-11-01T21:08:15.425Z,13.26
2018-11-01T21:16:36.418Z,13.15
2018-11-01T21:24:57.563Z,13.23
2018-11-01T21:33:18.565Z,13.03
2018-11-01T21:41:39.757Z,13.06
2018-11-01T21:50:00.836Z,13.15
2018-11-01T21:58:21.860Z,13.05
2018-11-01T22:06:42.894Z,13.25
2018-11-01T22:15:03.969Z,13.24
2018-11-01T22:23:25.000Z,13.28
2018-11-01T22:31:46.028Z,13.28
2018-11-01T22:40:07.064Z,13.45
2018-11-01T22:48:28.078Z,13.38
2018-11-01T22:56:49.085Z,13.68
2018-11-01T23:05:10.129Z,13.78
2018-11-01T23:13:31.141Z,13.59
2018-11-01T23:21:52.125Z,13.59
2018-11-01T23:30:13.121Z,13.46
2018-11-01T23:38:34.161Z,13.60
2018-11-01T23:46:55.169Z,13.58
2018-11-01T23:55:16.205Z,13.52
